Time;durP1;ratioP1;P1;durP2;ratioP2;P2;SDS_P1;SDS_P2;PMS_P1;PMS_P2;Temp;Humidity;BMP_temperature;BMP_pressure;BME280_temperature;BME280_humidity;BME280_pressure;Samples;Min_cycle;Max_cycle;Signal;HPM_P1;HPM_P2
2023/09/09 00:01:28;;;;;;;;;;;22.40;73.30;;;;;;4972045;28;20098;-83
2023/09/09 00:03:55;;;;;;;;;;;22.40;73.30;;;;;;4974868;28;20139;-82
2023/09/09 00:06:23;;;;;;;;;;;22.40;73.40;;;;;;4991172;28;19954;-82
2023/09/09 00:08:49;;;;;;;;;;;22.40;73.50;;;;;;4986998;28;20554;-81
2023/09/09 00:11:18;;;;;;;;;;;22.30;73.50;;;;;;4991782;28;20146;-82
2023/09/09 00:13:45;;;;;;;;;;;22.30;73.60;;;;;;4987308;28;19964;-82
2023/09/09 00:16:12;;;;;;;;;;;22.30;74.40;;;;;;4988289;28;20122;-82
2023/09/09 00:18:39;;;;;;;;;;;22.20;73.70;;;;;;4987406;28;25074;-81
2023/09/09 00:21:06;;;;;;;;;;;22.20;73.90;;;;;;4966768;28;19998;-82
2023/09/09 00:23:32;;;;;;;;;;;22.20;74.00;;;;;;4981517;28;20095;-83
2023/09/09 00:25:59;;;;;;;;;;;22.20;74.00;;;;;;4987858;28;20457;-82
2023/09/09 00:28:27;;;;;;;;;;;22.20;74.10;;;;;;4986147;28;20097;-82
2023/09/09 00:30:54;;;;;;;;;;;22.10;74.20;;;;;;4985289;28;19965;-82
2023/09/09 00:33:22;;;;;;;;;;;22.10;74.30;;;;;;4980432;28;20145;-82
2023/09/09 00:35:49;;;;;;;;;;;22.10;74.40;;;;;;4986358;28;19970;-81
2023/09/09 00:38:17;;;;;;;;;;;22.00;74.50;;;;;;4990428;28;20095;-82
2023/09/09 00:40:45;;;;;;;;;;;22.00;74.50;;;;;;4985039;28;19958;-82
2023/09/09 00:43:11;;;;;;;;;;;22.00;74.50;;;;;;4987785;28;20198;-82
2023/09/09 00:45:40;;;;;;;;;;;22.00;74.50;;;;;;4984506;28;20078;-82
2023/09/09 00:48:07;;;;;;;;;;;22.00;74.60;;;;;;4987114;28;20097;-81
2023/09/09 00:50:34;;;;;;;;;;;21.90;74.60;;;;;;4979370;28;20097;-81
2023/09/09 00:53:01;;;;;;;;;;;21.90;74.80;;;;;;4968572;28;20087;-81
2023/09/09 00:55:28;;;;;;;;;;;21.90;74.80;;;;;;4990707;28;20005;-83
2023/09/09 00:57:55;;;;;;;;;;;21.90;74.70;;;;;;4983210;28;20072;-82
2023/09/09 01:00:22;;;;;;;;;;;21.80;74.70;;;;;;4963887;28;20077;-82
2023/09/09 01:02:50;;;;;;;;;;;21.80;74.80;;;;;;4984732;28;20366;-82
2023/09/09 01:05:17;;;;;;;;;;;21.70;74.80;;;;;;4968455;28;20111;-82
2023/09/09 01:07:45;;;;;;;;;;;21.70;74.90;;;;;;4955360;28;20123;-82
2023/09/09 01:10:11;;;;;;;;;;;21.70;74.90;;;;;;4987816;28;20096;-81
2023/09/09 01:12:39;;;;;;;;;;;21.70;75.00;;;;;;4989230;28;20070;-83
2023/09/09 01:15:06;;;;;;;;;;;21.70;75.10;;;;;;4986689;28;19992;-82
2023/09/09 01:17:34;;;;;;;;;;;21.60;75.20;;;;;;4955514;28;20071;-83
2023/09/09 01:20:04;;;;;;;;;;;21.60;75.50;;;;;;4983460;28;20366;-83
2023/09/09 01:22:35;;;;;;;;;;;21.60;75.50;;;;;;4990968;28;20126;-82
2023/09/09 01:25:03;;;;;;;;;;;21.60;75.60;;;;;;4981461;28;20163;-82
2023/09/09 01:27:30;;;;;;;;;;;21.50;75.40;;;;;;4986523;28;20120;-81
2023/09/09 01:29:56;;;;;;;;;;;21.50;75.50;;;;;;4985234;28;20143;-82
2023/09/09 01:32:23;;;;;;;;;;;21.50;76.30;;;;;;4985172;28;20414;-83
2023/09/09 01:34:50;;;;;;;;;;;21.50;75.60;;;;;;4962981;28;19966;-81
2023/09/09 01:37:17;;;;;;;;;;;21.40;75.70;;;;;;4984803;28;20078;-81
2023/09/09 01:39:45;;;;;;;;;;;21.40;75.90;;;;;;4957195;28;20097;-82
2023/09/09 01:42:12;;;;;;;;;;;21.40;76.10;;;;;;4980187;28;20126;-82
2023/09/09 01:44:39;;;;;;;;;;;21.40;75.90;;;;;;4968580;28;20571;-82
2023/09/09 01:47:06;;;;;;;;;;;21.40;76.20;;;;;;4968968;28;20181;-83
2023/09/09 01:49:33;;;;;;;;;;;21.40;76.10;;;;;;4983593;28;20105;-82
2023/09/09 01:52:00;;;;;;;;;;;21.30;76.10;;;;;;4965613;28;20156;-82
2023/09/09 01:54:26;;;;;;;;;;;21.30;77.00;;;;;;4986282;28;20113;-81
2023/09/09 01:56:55;;;;;;;;;;;21.30;76.20;;;;;;4983192;28;20074;-84
2023/09/09 01:59:21;;;;;;;;;;;21.30;76.30;;;;;;4974213;28;20085;-82
2023/09/09 02:01:48;;;;;;;;;;;21.20;76.20;;;;;;4973523;28;20087;-82
2023/09/09 02:04:15;;;;;;;;;;;21.20;76.20;;;;;;4987489;28;20070;-82
2023/09/09 02:06:43;;;;;;;;;;;21.20;76.20;;;;;;4991168;28;20099;-82
2023/09/09 02:09:10;;;;;;;;;;;21.20;76.50;;;;;;4995587;28;20080;-82
2023/09/09 02:11:36;;;;;;;;;;;21.10;76.30;;;;;;4981205;28;20105;-82
2023/09/09 02:14:04;;;;;;;;;;;21.10;76.30;;;;;;4988962;28;19970;-82
2023/09/09 02:16:31;;;;;;;;;;;21.10;76.40;;;;;;4989653;28;20090;-82
2023/09/09 02:18:58;;;;;;;;;;;21.10;76.50;;;;;;4991804;28;20110;-83
2023/09/09 02:21:25;;;;;;;;;;;21.00;76.50;;;;;;4986353;28;20163;-82
2023/09/09 02:23:52;;;;;;;;;;;21.00;76.50;;;;;;4991256;28;20093;-82
2023/09/09 02:26:19;;;;;;;;;;;21.00;76.80;;;;;;4980061;28;20140;-82
2023/09/09 02:28:46;;;;;;;;;;;21.00;76.70;;;;;;4982856;28;19981;-83
2023/09/09 02:31:14;;;;;;;;;;;21.00;76.90;;;;;;4994532;28;20133;-83
2023/09/09 02:33:40;;;;;;;;;;;20.90;76.80;;;;;;4982295;28;20108;-83
2023/09/09 02:36:07;;;;;;;;;;;20.90;77.70;;;;;;4996059;28;19981;-82
2023/09/09 02:38:35;;;;;;;;;;;20.90;76.90;;;;;;4996600;28;20122;-83
2023/09/09 02:41:02;;;;;;;;;;;20.90;76.90;;;;;;4997202;28;20139;-82
2023/09/09 02:43:29;;;;;;;;;;;20.90;76.90;;;;;;4990315;28;20071;-82
2023/09/09 02:45:55;;;;;;;;;;;20.80;76.90;;;;;;4986202;28;20086;-82
2023/09/09 02:48:23;;;;;;;;;;;20.80;77.00;;;;;;4995319;28;20094;-82
2023/09/09 02:50:50;;;;;;;;;;;20.80;77.10;;;;;;4993493;28;20652;-82
2023/09/09 02:53:17;;;;;;;;;;;20.80;77.10;;;;;;4997225;28;20117;-82
2023/09/09 02:55:43;;;;;;;;;;;20.80;77.00;;;;;;4996723;28;20071;-83
2023/09/09 02:58:13;;;;;;;;;;;20.70;77.00;;;;;;4973087;28;20114;-82
2023/09/09 03:00:41;;;;;;;;;;;20.70;77.80;;;;;;4984959;28;20440;-83
2023/09/09 03:03:08;;;;;;;;;;;20.70;77.10;;;;;;4994741;28;19961;-82
2023/09/09 03:05:36;;;;;;;;;;;20.70;77.10;;;;;;4972038;28;20087;-82
2023/09/09 03:08:03;;;;;;;;;;;20.60;77.20;;;;;;4986984;28;20113;-83
2023/09/09 03:10:30;;;;;;;;;;;20.60;77.20;;;;;;4986258;28;20109;-82
2023/09/09 03:12:57;;;;;;;;;;;20.70;77.30;;;;;;4985864;28;21016;-82
2023/09/09 03:15:24;;;;;;;;;;;20.60;77.40;;;;;;4987324;28;20141;-81
2023/09/09 03:17:50;;;;;;;;;;;20.60;77.40;;;;;;4989730;28;20296;-82
2023/09/09 03:20:17;;;;;;;;;;;20.60;77.50;;;;;;4969479;28;20123;-83
2023/09/09 03:22:46;;;;;;;;;;;20.60;77.50;;;;;;4989901;28;20066;-81
2023/09/09 03:25:13;;;;;;;;;;;20.50;77.50;;;;;;4989763;28;20131;-82
2023/09/09 03:27:39;;;;;;;;;;;20.50;77.70;;;;;;4971318;28;20151;-83
2023/09/09 03:30:09;;;;;;;;;;;20.50;77.60;;;;;;4984801;28;19970;-82
2023/09/09 03:32:35;;;;;;;;;;;20.50;77.70;;;;;;4971865;28;20091;-82
2023/09/09 03:35:02;;;;;;;;;;;20.40;77.70;;;;;;4986250;28;20225;-83
2023/09/09 03:37:29;;;;;;;;;;;20.40;77.80;;;;;;4981943;28;20113;-83
2023/09/09 03:39:57;;;;;;;;;;;20.40;77.80;;;;;;4987647;28;20067;-81
2023/09/09 03:42:23;;;;;;;;;;;20.40;77.80;;;;;;4994160;28;20449;-82
2023/09/09 03:44:50;;;;;;;;;;;20.30;77.90;;;;;;5009531;28;20077;-82
2023/09/09 03:47:17;;;;;;;;;;;20.30;77.90;;;;;;5001595;28;20083;-81
2023/09/09 03:49:43;;;;;;;;;;;20.30;77.90;;;;;;5004995;28;20085;-82
2023/09/09 03:52:10;;;;;;;;;;;20.30;77.90;;;;;;5013664;28;20086;-83
2023/09/09 03:54:37;;;;;;;;;;;20.30;78.00;;;;;;5010166;28;20072;-82
2023/09/09 03:57:06;;;;;;;;;;;20.30;78.00;;;;;;4991819;28;20090;-82
2023/09/09 03:59:33;;;;;;;;;;;20.30;78.00;;;;;;5005902;28;20095;-83
2023/09/09 04:01:59;;;;;;;;;;;20.20;77.90;;;;;;5004310;28;20167;-82
2023/09/09 04:04:26;;;;;;;;;;;20.20;77.90;;;;;;4999431;28;20050;-82
2023/09/09 04:06:53;;;;;;;;;;;20.20;77.90;;;;;;5008988;28;20137;-82
2023/09/09 04:09:22;;;;;;;;;;;20.20;77.90;;;;;;4999885;28;20478;-82
2023/09/09 04:11:49;;;;;;;;;;;20.20;77.90;;;;;;5010861;28;20010;-83
2023/09/09 04:14:17;;;;;;;;;;;20.10;77.90;;;;;;5010749;28;20093;-82
2023/09/09 04:16:44;;;;;;;;;;;20.10;77.90;;;;;;5008049;28;20088;-82
2023/09/09 04:19:11;;;;;;;;;;;20.10;77.90;;;;;;5009899;28;20010;-83
2023/09/09 04:21:37;;;;;;;;;;;20.10;77.90;;;;;;5007014;28;20084;-81
2023/09/09 04:24:04;;;;;;;;;;;20.10;78.00;;;;;;5005506;28;19965;-82
2023/09/09 04:26:31;;;;;;;;;;;20.10;78.00;;;;;;5007720;28;19947;-83
2023/09/09 04:29:00;;;;;;;;;;;20.00;77.90;;;;;;5001365;28;19954;-82
2023/09/09 04:31:28;;;;;;;;;;;20.00;78.00;;;;;;5006661;28;19961;-81
2023/09/09 04:33:54;;;;;;;;;;;20.00;78.10;;;;;;4984341;28;19993;-82
2023/09/09 04:36:21;;;;;;;;;;;20.00;78.20;;;;;;4996703;28;20008;-82
2023/09/09 04:38:48;;;;;;;;;;;19.90;78.20;;;;;;5009640;28;20098;-81
2023/09/09 04:41:15;;;;;;;;;;;19.90;78.20;;;;;;5006006;28;19968;-82
2023/09/09 04:43:41;;;;;;;;;;;19.90;78.20;;;;;;4971394;28;20183;-81
2023/09/09 04:46:08;;;;;;;;;;;19.90;78.30;;;;;;4966289;28;19994;-81
2023/09/09 04:48:36;;;;;;;;;;;19.90;78.40;;;;;;4966211;28;20172;-82
2023/09/09 04:51:03;;;;;;;;;;;19.80;78.30;;;;;;4984003;28;19977;-82
2023/09/09 04:53:29;;;;;;;;;;;19.80;78.40;;;;;;4981161;28;20088;-82
2023/09/09 04:55:56;;;;;;;;;;;19.80;78.50;;;;;;4987538;28;19956;-81
2023/09/09 04:58:23;;;;;;;;;;;19.80;78.50;;;;;;4985270;28;20111;-82
2023/09/09 05:00:50;;;;;;;;;;;19.80;78.60;;;;;;4987758;28;20117;-83
2023/09/09 05:03:16;;;;;;;;;;;19.70;78.60;;;;;;4979862;28;20112;-80
2023/09/09 05:05:44;;;;;;;;;;;19.80;78.70;;;;;;4986154;28;20942;-82
2023/09/09 05:08:11;;;;;;;;;;;19.70;78.60;;;;;;4985479;28;19961;-82
2023/09/09 05:10:38;;;;;;;;;;;19.70;78.70;;;;;;4989717;28;20092;-80
2023/09/09 05:13:05;;;;;;;;;;;19.70;78.70;;;;;;4983354;28;20627;-81
2023/09/09 05:15:33;;;;;;;;;;;19.70;78.80;;;;;;4968349;28;19981;-80
2023/09/09 05:17:59;;;;;;;;;;;19.70;78.80;;;;;;4985730;28;20057;-81
2023/09/09 05:20:26;;;;;;;;;;;19.60;78.80;;;;;;4992981;28;20082;-80
2023/09/09 05:22:55;;;;;;;;;;;19.60;78.80;;;;;;4988417;28;20069;-80
2023/09/09 05:25:22;;;;;;;;;;;19.60;78.80;;;;;;4990414;28;20102;-81
2023/09/09 05:27:51;;;;;;;;;;;19.60;78.90;;;;;;4970157;28;20094;-79
2023/09/09 05:30:18;;;;;;;;;;;19.60;78.90;;;;;;4973245;28;20138;-80
2023/09/09 05:32:44;;;;;;;;;;;19.50;78.80;;;;;;4988798;28;20070;-79
2023/09/09 05:35:11;;;;;;;;;;;19.50;78.90;;;;;;4991399;28;19968;-79
2023/09/09 05:37:38;;;;;;;;;;;19.50;79.00;;;;;;4988604;28;19963;-80
2023/09/09 05:40:08;;;;;;;;;;;19.50;79.00;;;;;;4971322;28;20096;-80
2023/09/09 05:42:35;;;;;;;;;;;19.50;79.00;;;;;;4992834;28;20073;-79
2023/09/09 05:45:02;;;;;;;;;;;19.40;79.00;;;;;;4991440;28;20073;-80
2023/09/09 05:47:30;;;;;;;;;;;19.40;79.00;;;;;;4996157;28;20015;-80
2023/09/09 05:49:57;;;;;;;;;;;19.50;79.20;;;;;;4999205;28;19963;-81
2023/09/09 05:52:23;;;;;;;;;;;19.50;79.90;;;;;;4992737;28;20135;-80
2023/09/09 05:54:51;;;;;;;;;;;19.40;79.20;;;;;;4995178;28;20068;-79
2023/09/09 05:57:19;;;;;;;;;;;19.40;79.20;;;;;;4973471;28;20083;-80
2023/09/09 05:59:46;;;;;;;;;;;19.40;79.20;;;;;;4997685;28;20081;-79
2023/09/09 06:02:12;;;;;;;;;;;19.40;79.30;;;;;;4975997;28;20107;-79
2023/09/09 06:04:39;;;;;;;;;;;19.40;79.30;;;;;;4960041;28;20059;-81
2023/09/09 06:07:06;;;;;;;;;;;19.30;79.40;;;;;;4991510;28;20075;-81
2023/09/09 06:09:33;;;;;;;;;;;19.40;79.60;;;;;;4982465;28;20175;-79
2023/09/09 06:11:59;;;;;;;;;;;19.30;79.60;;;;;;4993075;28;20081;-79
2023/09/09 06:14:27;;;;;;;;;;;19.30;79.70;;;;;;4991200;28;20070;-79
2023/09/09 06:16:54;;;;;;;;;;;19.30;79.90;;;;;;4990131;28;20118;-79
2023/09/09 06:19:21;;;;;;;;;;;19.30;79.90;;;;;;4972745;28;20066;-79
2023/09/09 06:21:48;;;;;;;;;;;19.30;80.10;;;;;;4990262;28;20096;-78
2023/09/09 06:24:14;;;;;;;;;;;19.30;80.10;;;;;;4975539;28;20071;-77
2023/09/09 06:26:42;;;;;;;;;;;19.30;80.30;;;;;;4998518;28;19970;-79
2023/09/09 06:29:09;;;;;;;;;;;19.30;80.40;;;;;;4995916;28;20058;-79
2023/09/09 06:31:37;;;;;;;;;;;19.30;80.50;;;;;;4991417;28;19963;-77
2023/09/09 06:34:06;;;;;;;;;;;19.20;80.50;;;;;;4991323;28;19996;-78
2023/09/09 06:36:33;;;;;;;;;;;19.20;80.60;;;;;;4977081;28;21373;-79
2023/09/09 06:39:00;;;;;;;;;;;19.20;80.70;;;;;;4989304;28;20067;-79
2023/09/09 06:41:29;;;;;;;;;;;19.20;80.80;;;;;;4989852;28;20072;-78
2023/09/09 06:43:58;;;;;;;;;;;19.20;80.90;;;;;;4969428;28;20076;-78
2023/09/09 06:46:24;;;;;;;;;;;19.20;81.70;;;;;;4984877;28;19960;-77
2023/09/09 06:48:52;;;;;;;;;;;19.20;81.10;;;;;;4977505;28;20053;-79
2023/09/09 06:51:19;;;;;;;;;;;19.20;81.30;;;;;;4991906;28;19979;-79
2023/09/09 06:53:46;;;;;;;;;;;19.20;81.40;;;;;;4960195;28;19959;-79
2023/09/09 06:56:12;;;;;;;;;;;19.20;81.50;;;;;;4989047;28;20084;-80
2023/09/09 06:58:39;;;;;;;;;;;19.20;81.60;;;;;;4986949;28;20515;-80
2023/09/09 07:01:06;;;;;;;;;;;19.20;81.60;;;;;;4981967;28;20099;-81
2023/09/09 07:03:33;;;;;;;;;;;19.20;81.80;;;;;;4978385;28;25115;-79
2023/09/09 07:06:01;;;;;;;;;;;19.10;81.80;;;;;;4962515;28;19950;-80
2023/09/09 07:08:31;;;;;;;;;;;19.10;81.90;;;;;;4975606;28;20111;-79
2023/09/09 07:10:57;;;;;;;;;;;19.10;82.00;;;;;;4982448;28;19957;-79
2023/09/09 07:13:24;;;;;;;;;;;19.20;82.10;;;;;;4986817;28;25144;-78
2023/09/09 07:15:54;;;;;;;;;;;19.10;88.70;;;;;;5013443;28;20001;-78
2023/09/09 07:18:20;;;;;;;;;;;19.10;89.60;;;;;;5013095;28;20166;-79
2023/09/09 07:20:48;;;;;;;;;;;19.10;90.30;;;;;;5036371;28;25072;-78
2023/09/09 07:23:16;;;;;;;;;;;19.10;90.10;;;;;;5029266;28;20508;-78
2023/09/09 07:25:47;;;;;;;;;;;19.10;90.00;;;;;;5032615;28;25074;-78
2023/09/09 07:28:13;;;;;;;;;;;19.10;89.80;;;;;;5035535;28;20044;-78
2023/09/09 07:30:40;;;;;;;;;;;19.10;89.40;;;;;;5010967;28;20019;-78
2023/09/09 07:33:06;;;;;;;;;;;19.10;89.00;;;;;;5010144;28;20438;-77
2023/09/09 07:35:35;;;;;;;;;;;19.00;88.60;;;;;;5030367;28;25075;-77
2023/09/09 07:38:02;;;;;;;;;;;19.10;88.40;;;;;;5025920;28;19995;-78
2023/09/09 07:40:30;;;;;;;;;;;19.10;88.10;;;;;;5022925;28;25071;-77
2023/09/09 07:42:56;;;;;;;;;;;19.10;87.80;;;;;;5041502;28;20010;-77
2023/09/09 07:45:23;;;;;;;;;;;19.20;87.60;;;;;;5045292;28;25173;-77
2023/09/09 07:47:50;;;;;;;;;;;19.20;87.30;;;;;;5046759;28;20019;-78
2023/09/09 07:50:16;;;;;;;;;;;19.20;87.10;;;;;;5053711;28;20613;-77
2023/09/09 07:52:43;;;;;;;;;;;19.20;86.90;;;;;;5042262;28;25183;-79
2023/09/09 07:55:10;;;;;;;;;;;19.20;86.70;;;;;;5053252;28;20573;-78
2023/09/09 07:57:38;;;;;;;;;;;19.20;86.60;;;;;;5046942;28;20137;-78
2023/09/09 08:00:07;;;;;;;;;;;19.20;86.50;;;;;;5045694;28;25085;-77
2023/09/09 08:02:35;;;;;;;;;;;19.30;86.50;;;;;;5046931;28;20019;-77
2023/09/09 08:05:06;;;;;;;;;;;19.30;86.40;;;;;;5036407;28;20958;-78
2023/09/09 08:07:33;;;;;;;;;;;19.30;86.30;;;;;;5054130;28;25108;-77
2023/09/09 08:09:59;;;;;;;;;;;19.40;86.30;;;;;;5052158;28;20003;-80
2023/09/09 08:12:26;;;;;;;;;;;19.40;86.10;;;;;;5052787;28;25078;-79
2023/09/09 08:15:05;;;;;;;;;;;19.40;86.00;;;;;;5038623;28;19996;-77
2023/09/09 08:17:32;;;;;;;;;;;19.40;85.90;;;;;;5048082;28;20137;-77
2023/09/09 08:19:58;;;;;;;;;;;19.40;85.60;;;;;;5054089;28;25073;-77
2023/09/09 08:22:28;;;;;;;;;;;19.50;85.90;;;;;;5041582;28;20052;-78
2023/09/09 08:24:55;;;;;;;;;;;19.50;86.20;;;;;;5045500;28;20039;-78
2023/09/09 08:27:21;;;;;;;;;;;19.60;85.90;;;;;;5047364;28;20131;-78
2023/09/09 08:29:48;;;;;;;;;;;19.60;85.80;;;;;;5046546;28;25134;-79
2023/09/09 08:32:16;;;;;;;;;;;19.60;85.50;;;;;;5050824;28;20028;-78
2023/09/09 08:34:42;;;;;;;;;;;19.70;85.40;;;;;;5053599;28;20126;-78
2023/09/09 08:37:10;;;;;;;;;;;19.70;85.00;;;;;;5048519;28;20169;-79
2023/09/09 08:39:37;;;;;;;;;;;19.80;84.90;;;;;;5050605;28;20128;-78
2023/09/09 08:42:09;;;;;;;;;;;19.90;84.70;;;;;;5048968;28;20155;-79
2023/09/09 08:44:43;;;;;;;;;;;19.90;85.00;;;;;;5054002;28;20122;-79
2023/09/09 08:47:09;;;;;;;;;;;19.90;84.50;;;;;;5052823;28;20175;-79
2023/09/09 08:49:39;;;;;;;;;;;20.00;84.30;;;;;;5057760;28;20374;-78
2023/09/09 08:52:09;;;;;;;;;;;20.10;84.20;;;;;;5050231;28;20247;-79
2023/09/09 08:54:35;;;;;;;;;;;20.10;84.10;;;;;;5052553;28;20132;-79
2023/09/09 08:57:03;;;;;;;;;;;20.20;83.80;;;;;;5055172;28;20128;-77
2023/09/09 08:59:30;;;;;;;;;;;20.20;83.50;;;;;;5030923;28;20145;-77
2023/09/09 09:01:57;;;;;;;;;;;20.30;83.50;;;;;;5050130;28;20030;-78
2023/09/09 09:04:23;;;;;;;;;;;20.30;83.20;;;;;;5052014;28;20136;-79
2023/09/09 09:06:52;;;;;;;;;;;20.40;83.00;;;;;;5055739;28;20039;-78
2023/09/09 09:09:19;;;;;;;;;;;20.50;82.90;;;;;;5056664;28;21025;-78
2023/09/09 09:11:46;;;;;;;;;;;20.50;82.70;;;;;;5052496;28;20155;-76
2023/09/09 09:14:13;;;;;;;;;;;20.60;82.80;;;;;;5055157;28;20001;-78
2023/09/09 09:16:40;;;;;;;;;;;20.60;82.60;;;;;;5044761;28;20239;-76
2023/09/09 09:19:07;;;;;;;;;;;20.70;82.50;;;;;;5054468;28;20133;-77
2023/09/09 09:21:35;;;;;;;;;;;20.80;82.30;;;;;;5054172;28;20199;-76
2023/09/09 09:24:03;;;;;;;;;;;20.80;82.10;;;;;;5055033;28;19998;-78
2023/09/09 09:26:30;;;;;;;;;;;20.90;81.80;;;;;;5054940;28;20111;-77
2023/09/09 09:28:58;;;;;;;;;;;20.90;81.70;;;;;;5042487;28;25109;-78
2023/09/09 09:31:27;;;;;;;;;;;21.00;81.60;;;;;;5043253;28;20037;-78
2023/09/09 09:33:53;;;;;;;;;;;21.00;81.40;;;;;;5043619;28;20744;-79
2023/09/09 09:36:20;;;;;;;;;;;21.20;81.20;;;;;;5042032;28;20646;-78
2023/09/09 09:38:47;;;;;;;;;;;21.20;81.00;;;;;;5044873;28;20606;-79
2023/09/09 09:41:15;;;;;;;;;;;21.20;80.80;;;;;;5043316;28;20005;-78
2023/09/09 09:43:42;;;;;;;;;;;21.30;80.60;;;;;;5022803;28;20135;-78
2023/09/09 09:46:15;;;;;;;;;;;21.40;80.60;;;;;;5004760;28;20159;-78
2023/09/09 09:48:41;;;;;;;;;;;21.40;80.40;;;;;;5032413;28;20156;-77
2023/09/09 09:51:08;;;;;;;;;;;21.50;80.10;;;;;;5023356;28;20614;-78
2023/09/09 09:53:37;;;;;;;;;;;21.60;80.00;;;;;;5031437;28;20162;-78
2023/09/09 09:56:04;;;;;;;;;;;21.60;79.70;;;;;;5017789;28;19990;-78
2023/09/09 09:58:34;;;;;;;;;;;21.70;79.50;;;;;;5027005;28;20124;-78
2023/09/09 10:01:03;;;;;;;;;;;21.80;79.60;;;;;;5021527;28;20189;-78
2023/09/09 10:03:38;;;;;;;;;;;21.80;79.40;;;;;;5028386;28;20053;-77
2023/09/09 10:06:05;;;;;;;;;;;21.90;79.40;;;;;;5023858;28;20125;-77
2023/09/09 10:08:35;;;;;;;;;;;22.00;79.20;;;;;;5029622;28;20130;-77
2023/09/09 10:11:03;;;;;;;;;;;22.00;78.90;;;;;;5024692;28;20945;-78
2023/09/09 10:13:34;;;;;;;;;;;22.10;79.00;;;;;;5009742;28;25072;-78
2023/09/09 10:16:02;;;;;;;;;;;22.20;79.50;;;;;;5024838;28;20018;-76
2023/09/09 10:18:29;;;;;;;;;;;22.30;78.60;;;;;;5011363;28;20211;-77
2023/09/09 10:20:57;;;;;;;;;;;22.30;78.40;;;;;;4989777;28;20298;-78
2023/09/09 10:23:24;;;;;;;;;;;23.10;78.60;;;;;;5010168;28;25054;-77
2023/09/09 10:25:51;;;;;;;;;;;24.90;71.80;;;;;;5024577;28;19928;-77
2023/09/09 10:28:22;;;;;;;;;;;25.50;69.40;;;;;;5010788;28;19925;-77
2023/09/09 10:30:50;;;;;;;;;;;25.60;68.80;;;;;;5021863;28;19949;-77
2023/09/09 10:33:18;;;;;;;;;;;25.50;68.90;;;;;;5018965;28;19925;-77
2023/09/09 10:35:45;;;;;;;;;;;25.40;69.10;;;;;;5027878;28;19932;-76
2023/09/09 10:38:14;;;;;;;;;;;25.30;69.30;;;;;;5021688;28;19925;-76
2023/09/09 10:40:42;;;;;;;;;;;25.30;69.60;;;;;;5005502;28;20659;-77
2023/09/09 10:43:09;;;;;;;;;;;25.20;69.70;;;;;;5024700;28;20031;-77
2023/09/09 10:45:41;;;;;;;;;;;25.20;69.50;;;;;;5024221;28;19932;-77
2023/09/09 10:48:10;;;;;;;;;;;25.10;69.40;;;;;;5018367;28;19929;-76
2023/09/09 10:50:42;;;;;;;;;;;25.20;69.40;;;;;;5020684;28;19924;-76
2023/09/09 10:53:21;;;;;;;;;;;25.20;69.40;;;;;;5022438;28;19933;-76
2023/09/09 10:55:49;;;;;;;;;;;25.20;69.40;;;;;;5001404;28;19925;-77
2023/09/09 10:58:16;;;;;;;;;;;25.30;69.40;;;;;;5017539;28;19928;-76
2023/09/09 11:00:44;;;;;;;;;;;25.30;69.30;;;;;;5006004;28;20423;-77
2023/09/09 11:03:14;;;;;;;;;;;25.40;69.30;;;;;;5024144;28;19925;-78
2023/09/09 11:06:03;;;;;;;;;;;25.40;69.10;;;;;;5007860;28;19924;-78
2023/09/09 11:08:30;;;;;;;;;;;25.40;68.90;;;;;;5021227;28;19925;-77
2023/09/09 11:11:07;;;;;;;;;;;25.50;68.70;;;;;;5022467;28;20387;-77
2023/09/09 11:13:38;;;;;;;;;;;25.60;68.70;;;;;;5024544;28;19935;-78
2023/09/09 11:16:05;;;;;;;;;;;25.60;68.50;;;;;;5021904;28;20629;-78
2023/09/09 11:18:32;;;;;;;;;;;25.60;68.30;;;;;;5025484;28;19925;-78
2023/09/09 11:21:00;;;;;;;;;;;25.70;68.20;;;;;;5009438;28;19972;-78
2023/09/09 11:23:27;;;;;;;;;;;25.70;67.90;;;;;;5025918;28;19934;-77
2023/09/09 11:25:54;;;;;;;;;;;25.90;67.80;;;;;;5023665;28;20547;-77
2023/09/09 11:28:21;;;;;;;;;;;25.90;67.60;;;;;;5027384;28;19925;-76
2023/09/09 11:30:48;;;;;;;;;;;25.90;67.40;;;;;;5020554;28;19932;-77
2023/09/09 11:33:20;;;;;;;;;;;26.00;67.40;;;;;;5023446;28;19936;-78
2023/09/09 11:35:47;;;;;;;;;;;26.00;67.20;;;;;;5007705;28;19965;-78
2023/09/09 11:38:15;;;;;;;;;;;26.10;67.00;;;;;;5020105;28;19932;-78
2023/09/09 11:40:42;;;;;;;;;;;26.10;66.50;;;;;;5024249;28;20419;-77
2023/09/09 11:43:10;;;;;;;;;;;26.20;66.40;;;;;;5044753;28;19928;-77
2023/09/09 11:45:37;;;;;;;;;;;26.30;66.30;;;;;;5042619;28;19925;-77
2023/09/09 11:48:04;;;;;;;;;;;26.30;66.00;;;;;;5045213;28;19971;-77
2023/09/09 11:50:38;;;;;;;;;;;26.30;65.70;;;;;;5028328;28;20351;-78
2023/09/09 11:53:05;;;;;;;;;;;26.50;65.80;;;;;;5044136;28;19925;-77
2023/09/09 11:55:33;;;;;;;;;;;26.50;65.70;;;;;;5042444;28;19925;-76
2023/09/09 11:57:59;;;;;;;;;;;26.50;65.70;;;;;;5049200;28;19936;-77
2023/09/09 12:00:26;;;;;;;;;;;26.60;65.20;;;;;;5044024;28;19938;-77
2023/09/09 12:02:53;;;;;;;;;;;26.70;64.80;;;;;;5049186;28;19978;-77
2023/09/09 12:05:19;;;;;;;;;;;26.70;64.60;;;;;;5042332;28;19952;-78
2023/09/09 12:07:46;;;;;;;;;;;26.80;65.10;;;;;;5039185;28;20447;-78
2023/09/09 12:10:14;;;;;;;;;;;26.80;64.90;;;;;;5048008;28;20007;-77
2023/09/09 12:12:43;;;;;;;;;;;26.90;64.80;;;;;;5043507;28;19932;-77
2023/09/09 12:15:11;;;;;;;;;;;26.90;64.80;;;;;;5050639;28;19928;-78
2023/09/09 12:17:38;;;;;;;;;;;27.00;64.80;;;;;;5039764;28;19932;-77
2023/09/09 12:20:06;;;;;;;;;;;27.00;64.60;;;;;;5047712;28;19947;-77
2023/09/09 12:22:33;;;;;;;;;;;27.10;64.40;;;;;;5048672;28;20367;-78
2023/09/09 12:25:00;;;;;;;;;;;27.10;64.50;;;;;;5043265;28;19928;-76
2023/09/09 12:27:40;;;;;;;;;;;27.20;64.50;;;;;;5046247;28;19928;-77
2023/09/09 12:30:09;;;;;;;;;;;27.30;64.40;;;;;;5043649;28;19931;-77
2023/09/09 12:32:36;;;;;;;;;;;27.30;64.40;;;;;;5041768;28;20041;-77
2023/09/09 12:35:03;;;;;;;;;;;27.40;64.10;;;;;;5051415;28;19936;-78
2023/09/09 12:37:29;;;;;;;;;;;27.40;63.30;;;;;;5039825;28;20366;-75
2023/09/09 12:40:00;;;;;;;;;;;27.50;63.00;;;;;;5042713;28;19979;-78
2023/09/09 12:42:26;;;;;;;;;;;27.50;62.50;;;;;;5022775;28;19929;-77
2023/09/09 12:44:53;;;;;;;;;;;27.50;63.20;;;;;;5021310;28;19929;-78
2023/09/09 12:47:21;;;;;;;;;;;27.60;63.40;;;;;;5002036;28;20215;-77
2023/09/09 12:49:48;;;;;;;;;;;27.60;62.80;;;;;;5022301;28;20371;-77
2023/09/09 12:52:15;;;;;;;;;;;27.70;62.30;;;;;;5023880;28;20060;-77
2023/09/09 12:54:42;;;;;;;;;;;27.70;62.90;;;;;;5024818;28;19978;-78
2023/09/09 12:57:08;;;;;;;;;;;27.80;62.50;;;;;;5024530;28;19931;-77
2023/09/09 12:59:35;;;;;;;;;;;27.90;62.40;;;;;;5020565;28;19929;-77
2023/09/09 13:02:02;;;;;;;;;;;27.90;61.90;;;;;;5003838;28;20020;-78
2023/09/09 13:04:30;;;;;;;;;;;27.90;61.20;;;;;;5022733;28;20011;-78
2023/09/09 13:06:57;;;;;;;;;;;27.90;61.00;;;;;;5018653;28;19925;-78
2023/09/09 13:09:24;;;;;;;;;;;28.00;61.60;;;;;;5021163;28;20501;-78
2023/09/09 13:11:51;;;;;;;;;;;28.10;61.50;;;;;;5022565;28;19936;-78
2023/09/09 13:14:17;;;;;;;;;;;28.10;61.60;;;;;;5002936;28;19995;-78
2023/09/09 13:16:45;;;;;;;;;;;28.20;61.70;;;;;;5016421;28;20547;-78
2023/09/09 13:19:11;;;;;;;;;;;28.20;61.80;;;;;;5024071;28;19956;-78
2023/09/09 13:21:39;;;;;;;;;;;28.30;61.80;;;;;;5018204;28;20520;-78
2023/09/09 13:24:06;;;;;;;;;;;28.30;61.70;;;;;;5021473;28;19929;-77
2023/09/09 13:26:33;;;;;;;;;;;28.40;61.60;;;;;;5016404;28;19932;-76
2023/09/09 13:29:00;;;;;;;;;;;28.40;61.30;;;;;;5001729;28;19983;-78
2023/09/09 13:31:26;;;;;;;;;;;28.40;61.10;;;;;;5015100;28;19924;-77
2023/09/09 13:33:53;;;;;;;;;;;28.50;61.00;;;;;;5022238;28;19985;-77
2023/09/09 13:36:20;;;;;;;;;;;28.60;60.50;;;;;;5023737;28;20129;-77
2023/09/09 13:38:48;;;;;;;;;;;28.60;59.90;;;;;;5018693;28;25159;-78
2023/09/09 13:41:15;;;;;;;;;;;28.60;59.80;;;;;;5015340;28;19994;-77
2023/09/09 13:43:41;;;;;;;;;;;28.60;59.80;;;;;;5041140;28;20151;-77
2023/09/09 13:46:10;;;;;;;;;;;28.70;59.70;;;;;;5037517;28;20010;-77
2023/09/09 13:48:37;;;;;;;;;;;28.80;59.50;;;;;;5039030;28;25078;-77
2023/09/09 13:51:03;;;;;;;;;;;28.80;59.30;;;;;;5039397;28;20103;-76
2023/09/09 13:53:30;;;;;;;;;;;28.90;59.30;;;;;;5045194;28;25075;-79
2023/09/09 13:55:58;;;;;;;;;;;28.90;58.90;;;;;;5022985;28;19991;-78
2023/09/09 13:58:25;;;;;;;;;;;29.00;59.00;;;;;;5046400;28;20149;-77
2023/09/09 14:00:52;;;;;;;;;;;29.00;58.60;;;;;;5040005;28;20011;-78
2023/09/09 14:03:18;;;;;;;;;;;29.00;58.20;;;;;;5043989;28;20483;-77
2023/09/09 14:05:46;;;;;;;;;;;29.10;58.50;;;;;;5035169;28;20206;-78
2023/09/09 14:08:12;;;;;;;;;;;29.10;58.50;;;;;;5046336;28;25083;-78
2023/09/09 14:10:39;;;;;;;;;;;29.20;58.20;;;;;;5038445;28;20036;-78
2023/09/09 14:13:07;;;;;;;;;;;29.20;58.30;;;;;;5035693;28;25079;-77
2023/09/09 14:15:34;;;;;;;;;;;29.30;58.30;;;;;;5036346;28;20046;-78
2023/09/09 14:18:01;;;;;;;;;;;29.30;58.10;;;;;;5037584;28;20147;-77